Gridley, IL (61744)

12:07 PM CDT on June 28, 2017 (GMT -0500)
Rural Flanagan | | Change Station

Elev 670 ft 40.82 °N, 88.83 °W | Updated 6 seconds ago

Mostly Cloudy
Mostly Cloudy
76.3 °F
Feels Like 78 °F
N
13.0
Wind Variable Wind from SSE

Today
High -- | Low -- °F
--% Chance of Precip.
Yesterday
High -- | Low -- °F
Precip. -- in
Pressure 30.00 in
Visibility 10.0 miles
Clouds Scattered Clouds 5000 ft
Overcast 7000 ft
Heat Index 78 °F
Dew Point 61 °F
Humidity 60%
Rainfall 0.00 in
Snow Depth Not available.
5:26 AM 8:30 PM
Waxing Crescent, 27% visible
METAR KPNT 281655Z AUTO 00000KT 10SM VCTS SCT050 OVC070 23/17 A3000 RMK AO2 LTG DSNT W THRU N T02270167
Pressure 30.00 in
Visibility 10.0 miles
Clouds Scattered Clouds 5000 ft
Overcast 7000 ft
Heat Index 78 °F
Dew Point 61 °F
Humidity 60%
Rainfall 0.00 in
Snow Depth Not available.
5:26 AM 8:30 PM
Waxing Crescent, 27% visible
METAR KPNT 281655Z AUTO 00000KT 10SM VCTS SCT050 OVC070 23/17 A3000 RMK AO2 LTG DSNT W THRU N T02270167

Get Severe Weather Alerts

Thanks for signing up!

Be on the lookout for a verification email in your inbox.

You'll start receiving the daily forecast at 6 AM.

×

10-Day Weather Forecast

Almanac

Astronomy

Jun. 28, 2017 Rise Set
Actual Time
Civil Twilight
Nautical Twilight
Astronomical Twilight
Moon
Length of Visible Light
Length of Day
Tomorrow will be .
, % of the Moon is Illuminated

Today's Extremes

State Highs State Lows

Community

WunderPhotos

Category 6

Welcome to Category 6. This is the collective home for Weather Underground's featured writeups by Dr. Jeff Masters (right), Bob Henson (left), Chris Burt, and other regular contributors.

Nearby

Air Quality

  Air Quality AQ Index Pollutant
Not available.

Snow Depth

Station Depth Elevation

Earthquake Activity

City Distance Mag. Time & Date
Minimum magnitude displayed is 2.5.

Coastal Water Temperatures

Place Temperature

Stations

Nearby Weather Stations

Station Location Temp. Windchill Dew Point Humidity Wind Precip. Elev Updated Type
                   

Watches & Warnings

There are currently no watches in effect.